sensor_id;sensor_type;location;lat;lon;timestamp;P1;durP1;ratioP1;P2;durP2;ratioP2
21392;SDS011;10857;52.228;21.026;2023-02-16T07:36:39;110.67;;;45.50;;
21392;SDS011;10857;52.228;21.026;2023-02-16T07:39:06;118.20;;;48.27;;
21392;SDS011;10857;52.228;21.026;2023-02-16T07:41:36;123.03;;;46.60;;
21392;SDS011;10857;52.228;21.026;2023-02-16T07:44:06;117.03;;;48.77;;
21392;SDS011;10857;52.228;21.026;2023-02-16T07:46:34;116.37;;;47.60;;
21392;SDS011;10857;52.228;21.026;2023-02-16T07:49:01;114.73;;;45.30;;
21392;SDS011;10857;52.228;21.026;2023-02-16T07:51:29;120.90;;;48.73;;
21392;SDS011;10857;52.228;21.026;2023-02-16T07:53:57;118.03;;;48.20;;
21392;SDS011;10857;52.228;21.026;2023-02-16T07:56:26;117.90;;;48.43;;
21392;SDS011;10857;52.228;21.026;2023-02-16T07:58:54;116.70;;;48.37;;
21392;SDS011;10857;52.228;21.026;2023-02-16T08:01:22;119.27;;;49.23;;
21392;SDS011;10857;52.228;21.026;2023-02-16T08:03:49;116.87;;;48.07;;
21392;SDS011;10857;52.228;21.026;2023-02-16T08:06:17;117.28;;;58.72;;
21392;SDS011;10857;52.228;21.026;2023-02-16T08:08:45;116.60;;;51.23;;
21392;SDS011;10857;52.228;21.026;2023-02-16T08:11:15;115.87;;;48.43;;
21392;SDS011;10857;52.228;21.026;2023-02-16T08:13:43;125.17;;;49.77;;
21392;SDS011;10857;52.228;21.026;2023-02-16T08:16:12;121.40;;;49.13;;
21392;SDS011;10857;52.228;21.026;2023-02-16T08:18:40;116.10;;;45.43;;
21392;SDS011;10857;52.228;21.026;2023-02-16T08:21:15;110.40;;;46.47;;
21392;SDS011;10857;52.228;21.026;2023-02-16T08:23:43;115.83;;;47.53;;
21392;SDS011;10857;52.228;21.026;2023-02-16T08:26:16;112.20;;;47.83;;
21392;SDS011;10857;52.228;21.026;2023-02-16T08:28:44;108.93;;;44.00;;
21392;SDS011;10857;52.228;21.026;2023-02-16T08:31:13;115.40;;;46.80;;
21392;SDS011;10857;52.228;21.026;2023-02-16T08:33:42;110.47;;;45.93;;
21392;SDS011;10857;52.228;21.026;2023-02-16T08:36:16;107.87;;;45.53;;
21392;SDS011;10857;52.228;21.026;2023-02-16T08:38:44;111.00;;;46.67;;
21392;SDS011;10857;52.228;21.026;2023-02-16T08:41:11;108.60;;;47.07;;
21392;SDS011;10857;52.228;21.026;2023-02-16T08:43:39;108.40;;;46.00;;
21392;SDS011;10857;52.228;21.026;2023-02-16T08:46:06;108.87;;;46.73;;
21392;SDS011;10857;52.228;21.026;2023-02-16T08:48:34;108.93;;;43.97;;
21392;SDS011;10857;52.228;21.026;2023-02-16T08:51:02;107.90;;;45.53;;
21392;SDS011;10857;52.228;21.026;2023-02-16T08:53:32;104.67;;;45.20;;
21392;SDS011;10857;52.228;21.026;2023-02-16T08:56:01;106.17;;;45.33;;
21392;SDS011;10857;52.228;21.026;2023-02-16T08:58:29;100.17;;;43.20;;
21392;SDS011;10857;52.228;21.026;2023-02-16T09:00:57;107.07;;;45.63;;
21392;SDS011;10857;52.228;21.026;2023-02-16T09:03:24;102.10;;;44.53;;
21392;SDS011;10857;52.228;21.026;2023-02-16T09:05:52;100.27;;;43.63;;
21392;SDS011;10857;52.228;21.026;2023-02-16T09:08:20;100.37;;;43.77;;
21392;SDS011;10857;52.228;21.026;2023-02-16T09:10:48;103.10;;;42.47;;
21392;SDS011;10857;52.228;21.026;2023-02-16T09:13:18;99.30;;;41.87;;
21392;SDS011;10857;52.228;21.026;2023-02-16T09:15:46;97.10;;;42.40;;
21392;SDS011;10857;52.228;21.026;2023-02-16T09:18:13;95.43;;;40.63;;
21392;SDS011;10857;52.228;21.026;2023-02-16T09:20:42;100.53;;;41.73;;
21392;SDS011;10857;52.228;21.026;2023-02-16T09:23:12;98.10;;;40.93;;
21392;SDS011;10857;52.228;21.026;2023-02-16T09:25:39;97.17;;;40.97;;
21392;SDS011;10857;52.228;21.026;2023-02-16T09:28:07;104.07;;;42.53;;
21392;SDS011;10857;52.228;21.026;2023-02-16T09:30:36;91.33;;;40.30;;
21392;SDS011;10857;52.228;21.026;2023-02-16T09:33:04;94.67;;;40.97;;
21392;SDS011;10857;52.228;21.026;2023-02-16T09:35:32;96.23;;;40.93;;
21392;SDS011;10857;52.228;21.026;2023-02-16T09:38:00;94.53;;;40.90;;
21392;SDS011;10857;52.228;21.026;2023-02-16T09:40:27;99.40;;;42.73;;
21392;SDS011;10857;52.228;21.026;2023-02-16T09:42:59;92.23;;;41.77;;
21392;SDS011;10857;52.228;21.026;2023-02-16T09:45:29;94.30;;;40.43;;
21392;SDS011;10857;52.228;21.026;2023-02-16T09:48:00;94.70;;;40.43;;
21392;SDS011;10857;52.228;21.026;2023-02-16T09:50:29;95.77;;;41.03;;
21392;SDS011;10857;52.228;21.026;2023-02-16T09:53:20;97.27;;;42.67;;
21392;SDS011;10857;52.228;21.026;2023-02-16T09:58:20;96.53;;;41.03;;
21392;SDS011;10857;52.228;21.026;2023-02-16T10:00:53;95.83;;;41.70;;
21392;SDS011;10857;52.228;21.026;2023-02-16T10:03:37;94.77;;;41.33;;
21392;SDS011;10857;52.228;21.026;2023-02-16T10:11:19;94.77;;;42.07;;
21392;SDS011;10857;52.228;21.026;2023-02-16T10:14:06;92.30;;;40.80;;
21392;SDS011;10857;52.228;21.026;2023-02-16T10:16:36;97.17;;;40.33;;
21392;SDS011;10857;52.228;21.026;2023-02-16T10:19:18;92.07;;;40.97;;
21392;SDS011;10857;52.228;21.026;2023-02-16T10:21:48;97.17;;;40.13;;
21392;SDS011;10857;52.228;21.026;2023-02-16T10:24:16;91.83;;;40.23;;
21392;SDS011;10857;52.228;21.026;2023-02-16T10:26:50;86.70;;;40.37;;
21392;SDS011;10857;52.228;21.026;2023-02-16T10:29:20;97.73;;;41.27;;
21392;SDS011;10857;52.228;21.026;2023-02-16T10:37:21;94.93;;;40.63;;
21392;SDS011;10857;52.228;21.026;2023-02-16T10:42:39;88.13;;;38.90;;
21392;SDS011;10857;52.228;21.026;2023-02-16T10:47:37;93.40;;;39.37;;
21392;SDS011;10857;52.228;21.026;2023-02-16T10:50:06;89.83;;;39.60;;
21392;SDS011;10857;52.228;21.026;2023-02-16T10:52:35;92.17;;;39.57;;
21392;SDS011;10857;52.228;21.026;2023-02-16T10:55:03;93.10;;;41.63;;
21392;SDS011;10857;52.228;21.026;2023-02-16T10:57:31;90.80;;;38.80;;
21392;SDS011;10857;52.228;21.026;2023-02-16T11:00:04;86.17;;;38.40;;
21392;SDS011;10857;52.228;21.026;2023-02-16T11:02:37;91.60;;;39.63;;
21392;SDS011;10857;52.228;21.026;2023-02-16T11:07:55;90.90;;;39.07;;
21392;SDS011;10857;52.228;21.026;2023-02-16T11:10:33;93.33;;;38.80;;
21392;SDS011;10857;52.228;21.026;2023-02-16T11:13:01;91.10;;;40.73;;
21392;SDS011;10857;52.228;21.026;2023-02-16T11:15:29;85.70;;;37.90;;
21392;SDS011;10857;52.228;21.026;2023-02-16T11:17:58;89.73;;;38.50;;
21392;SDS011;10857;52.228;21.026;2023-02-16T11:20:30;87.20;;;37.37;;
21392;SDS011;10857;52.228;21.026;2023-02-16T11:28:30;82.63;;;36.47;;
21392;SDS011;10857;52.228;21.026;2023-02-16T11:30:59;87.17;;;38.60;;
21392;SDS011;10857;52.228;21.026;2023-02-16T11:33:27;75.57;;;33.83;;
21392;SDS011;10857;52.228;21.026;2023-02-16T11:35:55;81.40;;;37.50;;
21392;SDS011;10857;52.228;21.026;2023-02-16T11:38:32;83.03;;;37.07;;
21392;SDS011;10857;52.228;21.026;2023-02-16T11:41:03;84.50;;;37.23;;
21392;SDS011;10857;52.228;21.026;2023-02-16T11:43:33;77.60;;;36.40;;
21392;SDS011;10857;52.228;21.026;2023-02-16T11:46:13;82.43;;;36.87;;
21392;SDS011;10857;52.228;21.026;2023-02-16T11:48:42;79.07;;;36.97;;
21392;SDS011;10857;52.228;21.026;2023-02-16T11:51:10;78.67;;;36.33;;
21392;SDS011;10857;52.228;21.026;2023-02-16T11:53:41;79.63;;;37.13;;
21392;SDS011;10857;52.228;21.026;2023-02-16T11:58:38;78.17;;;34.97;;
21392;SDS011;10857;52.228;21.026;2023-02-16T12:06:40;80.17;;;35.23;;
21392;SDS011;10857;52.228;21.026;2023-02-16T12:09:22;74.47;;;33.73;;
21392;SDS011;10857;52.228;21.026;2023-02-16T12:11:56;73.23;;;34.10;;
21392;SDS011;10857;52.228;21.026;2023-02-16T12:14:29;80.40;;;35.87;;
21392;SDS011;10857;52.228;21.026;2023-02-16T12:17:14;71.03;;;32.07;;
21392;SDS011;10857;52.228;21.026;2023-02-16T12:19:55;72.67;;;33.27;;
21392;SDS011;10857;52.228;21.026;2023-02-16T12:25:00;74.63;;;33.70;;
21392;SDS011;10857;52.228;21.026;2023-02-16T12:27:32;71.50;;;34.03;;
21392;SDS011;10857;52.228;21.026;2023-02-16T12:37:33;66.77;;;31.53;;
21392;SDS011;10857;52.228;21.026;2023-02-16T12:45:27;72.77;;;34.80;;
21392;SDS011;10857;52.228;21.026;2023-02-16T12:47:58;67.37;;;33.60;;
21392;SDS011;10857;52.228;21.026;2023-02-16T12:50:28;72.90;;;34.97;;
21392;SDS011;10857;52.228;21.026;2023-02-16T12:53:07;71.40;;;33.87;;
21392;SDS011;10857;52.228;21.026;2023-02-16T12:55:40;75.33;;;34.77;;
21392;SDS011;10857;52.228;21.026;2023-02-16T12:58:15;70.23;;;32.37;;
21392;SDS011;10857;52.228;21.026;2023-02-16T13:05:41;74.13;;;35.33;;
21392;SDS011;10857;52.228;21.026;2023-02-16T13:08:29;90.90;;;35.27;;
21392;SDS011;10857;52.228;21.026;2023-02-16T13:11:39;75.17;;;34.83;;
21392;SDS011;10857;52.228;21.026;2023-02-16T13:13:59;83.70;;;36.10;;
21392;SDS011;10857;52.228;21.026;2023-02-16T13:16:35;76.03;;;34.97;;
21392;SDS011;10857;52.228;21.026;2023-02-16T13:19:08;76.90;;;35.23;;
21392;SDS011;10857;52.228;21.026;2023-02-16T13:45:44;76.70;;;36.63;;
21392;SDS011;10857;52.228;21.026;2023-02-16T13:48:13;74.87;;;36.20;;
21392;SDS011;10857;52.228;21.026;2023-02-16T13:50:42;81.27;;;37.67;;
21392;SDS011;10857;52.228;21.026;2023-02-16T13:53:19;82.10;;;39.10;;
21392;SDS011;10857;52.228;21.026;2023-02-16T13:55:47;79.27;;;39.23;;
21392;SDS011;10857;52.228;21.026;2023-02-16T14:00:48;84.33;;;40.10;;
21392;SDS011;10857;52.228;21.026;2023-02-16T14:05:47;84.03;;;39.80;;
21392;SDS011;10857;52.228;21.026;2023-02-16T14:08:24;85.00;;;39.40;;
21392;SDS011;10857;52.228;21.026;2023-02-16T14:16:11;81.03;;;39.17;;
21392;SDS011;10857;52.228;21.026;2023-02-16T14:18:41;90.33;;;41.97;;
21392;SDS011;10857;52.228;21.026;2023-02-16T14:21:17;89.10;;;40.57;;
21392;SDS011;10857;52.228;21.026;2023-02-16T14:23:52;87.40;;;40.20;;
21392;SDS011;10857;52.228;21.026;2023-02-16T14:26:20;88.17;;;40.50;;
21392;SDS011;10857;52.228;21.026;2023-02-16T14:28:50;85.43;;;40.80;;
21392;SDS011;10857;52.228;21.026;2023-02-16T14:31:20;91.23;;;40.23;;
21392;SDS011;10857;52.228;21.026;2023-02-16T14:34:02;84.70;;;39.63;;
21392;SDS011;10857;52.228;21.026;2023-02-16T14:36:32;90.67;;;40.57;;
21392;SDS011;10857;52.228;21.026;2023-02-16T14:39:00;90.80;;;42.97;;
21392;SDS011;10857;52.228;21.026;2023-02-16T14:41:31;90.87;;;41.70;;
21392;SDS011;10857;52.228;21.026;2023-02-16T14:56:48;87.57;;;42.60;;
21392;SDS011;10857;52.228;21.026;2023-02-16T15:02:52;90.67;;;41.47;;
21392;SDS011;10857;52.228;21.026;2023-02-16T15:05:16;88.30;;;39.87;;
21392;SDS011;10857;52.228;21.026;2023-02-16T15:07:45;86.10;;;39.67;;
21392;SDS011;10857;52.228;21.026;2023-02-16T18:11:33;88.20;;;42.33;;
21392;SDS011;10857;52.228;21.026;2023-02-16T18:14:00;90.43;;;44.23;;
21392;SDS011;10857;52.228;21.026;2023-02-16T18:16:27;91.87;;;43.20;;
21392;SDS011;10857;52.228;21.026;2023-02-16T18:18:55;88.30;;;42.20;;
21392;SDS011;10857;52.228;21.026;2023-02-16T18:21:23;92.13;;;41.77;;
21392;SDS011;10857;52.228;21.026;2023-02-16T18:23:50;88.87;;;42.77;;
21392;SDS011;10857;52.228;21.026;2023-02-16T18:26:18;89.83;;;41.33;;
21392;SDS011;10857;52.228;21.026;2023-02-16T18:28:45;94.00;;;43.17;;
21392;SDS011;10857;52.228;21.026;2023-02-16T18:31:13;88.00;;;40.47;;
21392;SDS011;10857;52.228;21.026;2023-02-16T18:33:40;92.43;;;42.53;;
21392;SDS011;10857;52.228;21.026;2023-02-16T18:36:07;95.00;;;42.57;;
21392;SDS011;10857;52.228;21.026;2023-02-16T18:38:35;89.50;;;41.03;;
21392;SDS011;10857;52.228;21.026;2023-02-16T18:41:02;91.07;;;42.37;;
21392;SDS011;10857;52.228;21.026;2023-02-16T18:43:30;88.40;;;42.33;;
21392;SDS011;10857;52.228;21.026;2023-02-16T18:45:57;85.77;;;41.83;;
21392;SDS011;10857;52.228;21.026;2023-02-16T18:48:25;90.10;;;42.67;;
21392;SDS011;10857;52.228;21.026;2023-02-16T18:50:52;91.67;;;41.33;;
21392;SDS011;10857;52.228;21.026;2023-02-16T18:53:20;88.70;;;41.27;;
21392;SDS011;10857;52.228;21.026;2023-02-16T18:55:47;88.63;;;41.70;;
21392;SDS011;10857;52.228;21.026;2023-02-16T18:58:14;84.83;;;39.97;;
21392;SDS011;10857;52.228;21.026;2023-02-16T19:00:42;90.83;;;40.93;;
21392;SDS011;10857;52.228;21.026;2023-02-16T19:03:09;91.67;;;41.17;;
21392;SDS011;10857;52.228;21.026;2023-02-16T19:05:36;90.67;;;43.33;;
21392;SDS011;10857;52.228;21.026;2023-02-16T19:08:04;91.57;;;40.93;;
21392;SDS011;10857;52.228;21.026;2023-02-16T19:10:31;93.30;;;41.30;;
21392;SDS011;10857;52.228;21.026;2023-02-16T19:12:59;91.97;;;42.27;;
21392;SDS011;10857;52.228;21.026;2023-02-16T19:15:27;92.23;;;43.90;;
21392;SDS011;10857;52.228;21.026;2023-02-16T19:17:55;98.23;;;44.93;;
21392;SDS011;10857;52.228;21.026;2023-02-16T19:20:22;95.57;;;42.40;;
21392;SDS011;10857;52.228;21.026;2023-02-16T19:22:50;94.40;;;43.60;;
21392;SDS011;10857;52.228;21.026;2023-02-16T19:25:18;103.20;;;45.43;;
21392;SDS011;10857;52.228;21.026;2023-02-16T19:27:46;96.23;;;43.10;;
21392;SDS011;10857;52.228;21.026;2023-02-16T19:30:13;101.63;;;44.60;;
21392;SDS011;10857;52.228;21.026;2023-02-16T19:32:41;104.20;;;44.60;;
21392;SDS011;10857;52.228;21.026;2023-02-16T19:35:09;103.47;;;45.20;;
21392;SDS011;10857;52.228;21.026;2023-02-16T19:37:36;95.43;;;45.50;;
21392;SDS011;10857;52.228;21.026;2023-02-16T19:40:04;94.60;;;44.93;;
21392;SDS011;10857;52.228;21.026;2023-02-16T19:42:32;96.57;;;43.37;;
21392;SDS011;10857;52.228;21.026;2023-02-16T19:44:59;106.33;;;47.10;;
21392;SDS011;10857;52.228;21.026;2023-02-16T19:47:26;91.93;;;45.13;;
21392;SDS011;10857;52.228;21.026;2023-02-16T19:49:54;95.73;;;44.47;;
21392;SDS011;10857;52.228;21.026;2023-02-16T19:52:21;94.77;;;44.10;;
21392;SDS011;10857;52.228;21.026;2023-02-16T19:54:48;96.77;;;44.23;;
21392;SDS011;10857;52.228;21.026;2023-02-16T19:57:16;101.57;;;43.63;;
21392;SDS011;10857;52.228;21.026;2023-02-16T19:59:43;96.07;;;44.50;;
21392;SDS011;10857;52.228;21.026;2023-02-16T20:02:11;100.33;;;43.70;;
21392;SDS011;10857;52.228;21.026;2023-02-16T20:04:40;95.17;;;45.60;;
21392;SDS011;10857;52.228;21.026;2023-02-16T20:07:07;97.87;;;45.27;;
21392;SDS011;10857;52.228;21.026;2023-02-16T20:09:35;100.20;;;43.90;;
21392;SDS011;10857;52.228;21.026;2023-02-16T20:12:03;93.77;;;42.97;;
21392;SDS011;10857;52.228;21.026;2023-02-16T20:14:30;103.03;;;44.37;;
21392;SDS011;10857;52.228;21.026;2023-02-16T20:16:58;98.13;;;45.00;;
21392;SDS011;10857;52.228;21.026;2023-02-16T20:19:25;98.93;;;44.00;;
21392;SDS011;10857;52.228;21.026;2023-02-16T20:21:52;97.97;;;44.97;;
21392;SDS011;10857;52.228;21.026;2023-02-16T20:24:20;103.77;;;44.60;;
21392;SDS011;10857;52.228;21.026;2023-02-16T20:26:47;100.63;;;45.73;;
21392;SDS011;10857;52.228;21.026;2023-02-16T20:29:17;99.30;;;45.63;;
21392;SDS011;10857;52.228;21.026;2023-02-16T20:31:50;101.30;;;43.70;;
21392;SDS011;10857;52.228;21.026;2023-02-16T20:34:18;98.13;;;44.57;;
21392;SDS011;10857;52.228;21.026;2023-02-16T20:36:46;101.73;;;46.53;;
21392;SDS011;10857;52.228;21.026;2023-02-16T20:39:14;101.50;;;44.47;;
21392;SDS011;10857;52.228;21.026;2023-02-16T20:41:41;104.00;;;46.60;;
21392;SDS011;10857;52.228;21.026;2023-02-16T20:44:09;103.13;;;46.03;;
21392;SDS011;10857;52.228;21.026;2023-02-16T20:46:37;96.83;;;45.50;;
21392;SDS011;10857;52.228;21.026;2023-02-16T20:49:05;101.53;;;47.27;;
21392;SDS011;10857;52.228;21.026;2023-02-16T20:51:33;97.87;;;45.27;;
21392;SDS011;10857;52.228;21.026;2023-02-16T20:54:02;96.87;;;46.80;;
21392;SDS011;10857;52.228;21.026;2023-02-16T20:56:29;98.53;;;46.00;;
21392;SDS011;10857;52.228;21.026;2023-02-16T20:58:57;106.13;;;47.23;;
21392;SDS011;10857;52.228;21.026;2023-02-16T21:01:28;107.03;;;47.27;;
21392;SDS011;10857;52.228;21.026;2023-02-16T21:03:57;105.77;;;47.50;;
21392;SDS011;10857;52.228;21.026;2023-02-16T21:06:30;108.77;;;48.87;;
21392;SDS011;10857;52.228;21.026;2023-02-16T21:08:57;110.77;;;48.10;;
21392;SDS011;10857;52.228;21.026;2023-02-16T21:11:25;106.53;;;47.83;;
21392;SDS011;10857;52.228;21.026;2023-02-16T21:13:52;103.70;;;48.23;;
21392;SDS011;10857;52.228;21.026;2023-02-16T21:16:20;104.97;;;48.50;;
21392;SDS011;10857;52.228;21.026;2023-02-16T21:18:49;104.73;;;48.07;;
21392;SDS011;10857;52.228;21.026;2023-02-16T21:21:17;106.60;;;48.83;;
21392;SDS011;10857;52.228;21.026;2023-02-16T21:23:58;109.90;;;48.20;;
21392;SDS011;10857;52.228;21.026;2023-02-16T21:26:35;103.43;;;46.53;;
21392;SDS011;10857;52.228;21.026;2023-02-16T21:29:04;105.23;;;47.23;;
21392;SDS011;10857;52.228;21.026;2023-02-16T21:31:55;107.13;;;47.90;;
21392;SDS011;10857;52.228;21.026;2023-02-16T21:34:27;109.17;;;48.27;;
21392;SDS011;10857;52.228;21.026;2023-02-16T21:36:56;107.80;;;47.83;;
21392;SDS011;10857;52.228;21.026;2023-02-16T21:39:54;101.60;;;46.27;;
21392;SDS011;10857;52.228;21.026;2023-02-16T21:42:41;107.33;;;46.43;;
21392;SDS011;10857;52.228;21.026;2023-02-16T21:45:09;104.33;;;45.70;;
21392;SDS011;10857;52.228;21.026;2023-02-16T21:47:40;109.77;;;48.00;;
21392;SDS011;10857;52.228;21.026;2023-02-16T21:50:26;108.77;;;48.90;;
21392;SDS011;10857;52.228;21.026;2023-02-16T21:52:54;108.97;;;47.60;;
21392;SDS011;10857;52.228;21.026;2023-02-16T21:59:31;110.40;;;48.73;;
21392;SDS011;10857;52.228;21.026;2023-02-16T22:01:58;110.73;;;47.80;;
21392;SDS011;10857;52.228;21.026;2023-02-16T22:04:29;103.60;;;47.47;;
21392;SDS011;10857;52.228;21.026;2023-02-16T22:07:00;109.63;;;46.83;;
21392;SDS011;10857;52.228;21.026;2023-02-16T22:09:27;106.50;;;46.63;;
21392;SDS011;10857;52.228;21.026;2023-02-16T22:12:00;108.67;;;48.83;;
21392;SDS011;10857;52.228;21.026;2023-02-16T22:14:30;108.73;;;47.70;;
21392;SDS011;10857;52.228;21.026;2023-02-16T22:16:58;108.10;;;48.70;;
21392;SDS011;10857;52.228;21.026;2023-02-16T22:19:34;106.10;;;49.03;;
21392;SDS011;10857;52.228;21.026;2023-02-16T22:22:02;104.47;;;47.43;;
21392;SDS011;10857;52.228;21.026;2023-02-16T22:24:29;113.97;;;49.40;;
21392;SDS011;10857;52.228;21.026;2023-02-16T22:27:02;108.53;;;49.53;;
21392;SDS011;10857;52.228;21.026;2023-02-16T22:29:32;112.27;;;49.90;;
21392;SDS011;10857;52.228;21.026;2023-02-16T22:32:01;108.70;;;48.33;;
21392;SDS011;10857;52.228;21.026;2023-02-16T22:34:30;108.30;;;50.23;;
21392;SDS011;10857;52.228;21.026;2023-02-16T22:36:58;107.03;;;48.50;;
21392;SDS011;10857;52.228;21.026;2023-02-16T22:39:27;116.07;;;49.07;;
21392;SDS011;10857;52.228;21.026;2023-02-16T22:41:56;114.43;;;52.10;;
21392;SDS011;10857;52.228;21.026;2023-02-16T22:44:27;111.97;;;50.70;;
21392;SDS011;10857;52.228;21.026;2023-02-16T22:46:59;108.93;;;47.97;;
21392;SDS011;10857;52.228;21.026;2023-02-16T22:49:27;111.47;;;49.87;;
21392;SDS011;10857;52.228;21.026;2023-02-16T22:51:54;111.43;;;49.67;;
21392;SDS011;10857;52.228;21.026;2023-02-16T22:54:22;108.57;;;49.00;;
21392;SDS011;10857;52.228;21.026;2023-02-16T22:56:50;114.53;;;50.77;;
21392;SDS011;10857;52.228;21.026;2023-02-16T22:59:31;112.10;;;50.53;;
21392;SDS011;10857;52.228;21.026;2023-02-16T23:01:59;108.07;;;48.37;;
